Time;durP1;ratioP1;P1;durP2;ratioP2;P2;SDS_P1;SDS_P2;PMS_P1;PMS_P2;Temp;Humidity;BMP_temperature;BMP_pressure;BME280_temperature;BME280_humidity;BME280_pressure;Samples;Min_cycle;Max_cycle;Signal;HPM_P1;HPM_P2
2024/01/09 00:02:01;;;;;;;13.95;2.20;;;2.10;99.90;;;;;;4958279;28;20469;-90
2024/01/09 00:04:27;;;;;;;15.88;2.20;;;2.10;99.90;;;;;;4974296;28;20027;-90
2024/01/09 00:06:53;;;;;;;6.55;1.67;;;2.10;99.90;;;;;;4971571;28;20019;-90
2024/01/09 00:09:20;;;;;;;12.23;2.70;;;2.10;99.90;;;;;;4972891;28;20030;-90
2024/01/09 00:11:47;;;;;;;12.85;2.38;;;2.00;99.90;;;;;;4971429;28;20030;-90
2024/01/09 00:14:15;;;;;;;13.85;2.33;;;2.10;99.90;;;;;;4974893;28;20120;-90
2024/01/09 00:16:41;;;;;;;6.75;1.85;;;2.10;99.90;;;;;;4991206;28;20018;-90
2024/01/09 00:19:08;;;;;;;9.77;2.30;;;2.10;99.90;;;;;;4989440;28;20130;-90
2024/01/09 00:21:34;;;;;;;11.63;2.33;;;2.00;99.90;;;;;;4993744;28;20018;-90
2024/01/09 00:23:59;;;;;;;13.43;2.50;;;2.00;99.90;;;;;;4978452;28;20038;-91
2024/01/09 00:26:25;;;;;;;9.88;2.03;;;2.00;99.90;;;;;;4978016;28;20022;-90
2024/01/09 00:28:51;;;;;;;10.13;1.88;;;2.00;99.90;;;;;;4979451;28;20026;-91
2024/01/09 00:31:16;;;;;;;15.20;3.35;;;2.00;99.90;;;;;;5004748;28;20030;-90
2024/01/09 00:33:42;;;;;;;11.38;1.80;;;2.00;99.90;;;;;;4990235;28;20098;-90
2024/01/09 00:36:08;;;;;;;12.35;2.22;;;2.00;99.90;;;;;;4987299;28;20030;-90
2024/01/09 00:38:35;;;;;;;14.45;1.73;;;2.00;99.90;;;;;;4983019;28;20064;-90
2024/01/09 00:41:00;;;;;;;9.10;1.75;;;2.00;99.90;;;;;;5000584;28;20485;-90
2024/01/09 00:43:26;;;;;;;10.35;2.25;;;2.00;99.90;;;;;;4980725;28;20022;-89
2024/01/09 00:45:52;;;;;;;12.45;1.70;;;2.00;99.90;;;;;;4980793;28;20087;-90
2024/01/09 00:48:17;;;;;;;9.00;2.33;;;2.00;99.90;;;;;;4980917;28;20418;-90
2024/01/09 00:50:43;;;;;;;11.98;1.50;;;2.00;99.90;;;;;;4980942;28;20034;-90
2024/01/09 00:53:10;;;;;;;15.65;1.92;;;2.00;99.90;;;;;;4980734;28;20511;-90
2024/01/09 00:55:36;;;;;;;9.77;1.60;;;2.00;99.90;;;;;;4981056;28;20026;-89
2024/01/09 00:58:02;;;;;;;6.15;1.50;;;2.00;99.90;;;;;;4980082;28;20034;-89
2024/01/09 01:00:27;;;;;;;12.75;1.85;;;2.00;99.90;;;;;;4980060;28;20038;-90
2024/01/09 01:02:53;;;;;;;10.98;1.60;;;2.00;99.90;;;;;;4979849;28;20474;-90
2024/01/09 01:05:19;;;;;;;11.60;2.28;;;2.00;99.90;;;;;;4979918;28;20084;-90
2024/01/09 01:07:44;;;;;;;10.00;2.13;;;2.00;99.90;;;;;;4979325;28;20062;-90
2024/01/09 01:10:14;;;;;;;13.25;1.55;;;2.00;99.90;;;;;;4979183;28;20029;-90
2024/01/09 01:12:40;;;;;;;11.50;1.90;;;2.00;99.90;;;;;;4995491;28;20041;-90
2024/01/09 01:15:06;;;;;;;9.57;1.65;;;2.00;99.90;;;;;;4978588;28;20494;-90
2024/01/09 01:17:32;;;;;;;10.05;3.08;;;2.00;99.90;;;;;;4978833;28;20033;-90
2024/01/09 01:19:58;;;;;;;12.52;2.30;;;2.00;99.90;;;;;;4979292;28;20490;-90
2024/01/09 01:22:25;;;;;;;8.43;1.98;;;2.00;99.90;;;;;;4979322;28;20034;-89
2024/01/09 01:24:51;;;;;;;13.80;2.55;;;2.00;99.90;;;;;;4963050;28;20057;-90
2024/01/09 01:27:16;;;;;;;9.30;1.90;;;2.00;99.90;;;;;;4979251;28;20564;-89
2024/01/09 01:29:42;;;;;;;14.38;1.80;;;1.90;99.90;;;;;;4979375;28;20433;-90
2024/01/09 01:32:10;;;;;;;9.55;1.52;;;2.00;99.90;;;;;;4978185;28;20409;-89
2024/01/09 01:34:39;;;;;;;11.32;1.83;;;2.00;99.90;;;;;;4979269;28;20018;-90
2024/01/09 01:37:05;;;;;;;8.77;1.70;;;2.00;99.90;;;;;;4978951;28;20034;-89
2024/01/09 01:39:31;;;;;;;8.85;2.20;;;2.00;99.90;;;;;;4979324;28;20030;-91
2024/01/09 01:41:56;;;;;;;10.38;1.65;;;2.00;99.90;;;;;;4978827;28;20097;-91
2024/01/09 01:44:22;;;;;;;11.13;2.28;;;1.90;99.90;;;;;;4978868;28;20026;-90
2024/01/09 01:46:50;;;;;;;13.18;2.58;;;2.00;99.90;;;;;;4978590;28;20026;-91
2024/01/09 01:49:18;;;;;;;7.28;1.35;;;2.00;99.90;;;;;;4978809;28;20030;-90
2024/01/09 01:51:46;;;;;;;9.35;2.00;;;2.00;99.90;;;;;;4978126;28;20493;-89
2024/01/09 01:54:13;;;;;;;12.57;1.85;;;2.00;99.90;;;;;;4962916;28;20163;-90
2024/01/09 01:56:40;;;;;;;10.70;1.70;;;2.00;99.90;;;;;;4978787;28;20054;-89
2024/01/09 01:59:08;;;;;;;7.88;1.92;;;1.90;99.90;;;;;;4978833;28;20038;-90
2024/01/09 02:01:34;;;;;;;6.22;1.58;;;2.00;99.90;;;;;;4978549;28;20481;-89
2024/01/09 02:04:00;;;;;;;7.07;2.08;;;1.90;99.90;;;;;;4978114;28;20030;-90
2024/01/09 02:06:26;;;;;;;15.43;2.00;;;2.00;99.90;;;;;;4995787;28;20058;-89
2024/01/09 02:08:54;;;;;;;15.43;1.77;;;2.00;99.90;;;;;;4978600;28;20069;-90
2024/01/09 02:11:21;;;;;;;6.38;1.75;;;2.00;99.90;;;;;;4979334;28;20074;-90
2024/01/09 02:13:49;;;;;;;12.85;1.80;;;2.00;99.90;;;;;;4978722;28;20033;-90
2024/01/09 02:16:15;;;;;;;7.45;1.23;;;2.00;99.90;;;;;;4978526;28;20030;-89
2024/01/09 02:18:42;;;;;;;8.90;2.10;;;2.00;99.90;;;;;;4978365;28;20084;-89
2024/01/09 02:21:10;;;;;;;11.05;1.90;;;2.00;99.90;;;;;;4978371;28;20034;-90
2024/01/09 02:23:39;;;;;;;7.50;1.85;;;2.00;99.90;;;;;;4978164;28;20034;-89
2024/01/09 02:26:05;;;;;;;5.57;1.45;;;2.00;99.90;;;;;;4994322;28;20038;-89
2024/01/09 02:28:36;;;;;;;7.53;1.73;;;2.00;99.90;;;;;;4978867;28;20026;-89
2024/01/09 02:31:03;;;;;;;17.63;2.38;;;2.00;99.90;;;;;;4981080;28;20034;-89
2024/01/09 02:33:30;;;;;;;11.38;1.77;;;2.00;99.90;;;;;;4982132;28;20038;-89
2024/01/09 02:35:55;;;;;;;8.70;1.67;;;2.00;99.90;;;;;;4982158;28;20034;-89
2024/01/09 02:38:21;;;;;;;8.00;1.77;;;1.90;99.90;;;;;;4997749;28;20038;-89
2024/01/09 02:40:47;;;;;;;10.07;1.73;;;1.90;99.90;;;;;;4981408;28;20065;-89
2024/01/09 02:43:12;;;;;;;10.98;1.70;;;1.90;99.90;;;;;;4980473;28;20045;-89
2024/01/09 02:45:38;;;;;;;11.93;3.00;;;1.80;99.90;;;;;;4997753;28;20042;-89
2024/01/09 02:48:07;;;;;;;8.02;1.50;;;1.80;99.90;;;;;;4994582;28;20065;-89
2024/01/09 02:50:33;;;;;;;8.68;2.63;;;1.80;99.90;;;;;;4981394;28;20026;-90
2024/01/09 02:53:02;;;;;;;6.43;2.38;;;1.80;99.90;;;;;;4982763;28;20034;-90
2024/01/09 02:55:28;;;;;;;15.43;1.83;;;1.80;99.90;;;;;;4964809;28;20039;-91
2024/01/09 02:57:56;;;;;;;11.38;2.22;;;1.80;99.90;;;;;;4978667;28;20034;-91
2024/01/09 03:00:24;;;;;;;10.38;1.80;;;1.80;99.90;;;;;;4979768;28;20030;-90
2024/01/09 03:02:52;;;;;;;13.73;1.88;;;1.70;99.90;;;;;;4987475;28;20477;-91
2024/01/09 03:05:18;;;;;;;16.08;2.25;;;1.70;99.90;;;;;;4979095;28;20022;-90
2024/01/09 03:07:45;;;;;;;8.00;2.00;;;1.60;99.90;;;;;;4978325;28;20038;-90
2024/01/09 03:10:11;;;;;;;7.55;1.48;;;1.70;99.90;;;;;;4977458;28;20034;-91
2024/01/09 03:12:37;;;;;;;13.52;1.77;;;1.60;99.90;;;;;;4994698;28;20054;-90
2024/01/09 03:15:03;;;;;;;11.80;1.90;;;1.60;99.90;;;;;;4977469;28;20026;-90
2024/01/09 03:17:30;;;;;;;11.30;2.17;;;1.60;99.90;;;;;;4977510;28;20088;-90
2024/01/09 03:19:56;;;;;;;11.80;2.38;;;1.60;99.90;;;;;;4983592;28;20134;-90
2024/01/09 03:22:21;;;;;;;11.88;2.60;;;1.60;99.90;;;;;;4991861;28;20023;-90
2024/01/09 03:24:47;;;;;;;10.48;2.17;;;1.60;99.90;;;;;;5011335;28;20029;-90
2024/01/09 03:27:13;;;;;;;11.73;1.80;;;1.60;99.90;;;;;;4993625;28;20040;-90
2024/01/09 03:29:39;;;;;;;12.50;1.80;;;1.60;99.90;;;;;;4987591;28;20040;-90
2024/01/09 03:32:06;;;;;;;9.25;1.92;;;1.60;99.90;;;;;;4992403;28;20485;-89
2024/01/09 03:34:32;;;;;;;11.82;1.77;;;1.60;99.90;;;;;;5008566;28;20043;-89
2024/01/09 03:36:57;;;;;;;11.20;2.38;;;1.60;99.90;;;;;;4992648;28;20035;-90
2024/01/09 03:39:23;;;;;;;13.85;1.63;;;1.60;99.90;;;;;;4992877;28;20105;-90
2024/01/09 03:41:49;;;;;;;8.48;1.40;;;1.60;99.90;;;;;;4992073;28;20046;-88
2024/01/09 03:44:15;;;;;;;6.30;1.13;;;1.60;99.90;;;;;;4993853;28;20116;-89
2024/01/09 03:46:41;;;;;;;9.38;1.75;;;1.50;99.90;;;;;;4980921;28;20022;-90
2024/01/09 03:49:09;;;;;;;14.02;2.22;;;1.50;99.90;;;;;;4997944;28;20029;-89
2024/01/09 03:51:35;;;;;;;16.50;1.95;;;1.50;99.90;;;;;;4985920;28;20034;-90
2024/01/09 03:54:02;;;;;;;8.65;2.22;;;1.50;99.90;;;;;;4987260;28;20030;-90
2024/01/09 03:56:28;;;;;;;17.27;2.97;;;1.50;99.90;;;;;;4993201;28;20062;-89
2024/01/09 03:58:54;;;;;;;6.95;1.88;;;1.50;99.90;;;;;;5010074;28;20026;-89
2024/01/09 04:01:20;;;;;;;6.78;1.75;;;1.50;99.90;;;;;;4992030;28;20037;-89
2024/01/09 04:03:45;;;;;;;8.30;2.30;;;1.50;99.90;;;;;;4995931;28;20038;-89
2024/01/09 04:06:11;;;;;;;10.65;2.08;;;1.40;99.90;;;;;;4996263;28;20054;-89
2024/01/09 04:08:37;;;;;;;14.65;2.58;;;1.40;99.90;;;;;;4984041;28;20026;-90
2024/01/09 04:11:04;;;;;;;9.23;1.80;;;1.40;99.90;;;;;;4985072;28;20026;-91
2024/01/09 04:13:30;;;;;;;15.10;3.35;;;1.40;99.90;;;;;;5007179;28;20089;-92
2024/01/09 04:15:56;;;;;;;11.55;1.90;;;1.40;99.90;;;;;;4988348;28;20030;-91
2024/01/09 04:18:22;;;;;;;13.85;2.03;;;1.40;99.90;;;;;;4987756;28;20035;-91
2024/01/09 04:20:48;;;;;;;14.13;1.98;;;1.40;99.90;;;;;;4984763;28;20030;-91
2024/01/09 04:23:13;;;;;;;19.13;2.90;;;1.30;99.90;;;;;;4983881;28;20050;-88
2024/01/09 04:25:39;;;;;;;16.10;3.30;;;1.30;99.90;;;;;;4984238;28;20030;-92
2024/01/09 04:28:08;;;;;;;18.63;2.85;;;1.30;99.90;;;;;;5001267;28;20027;-91
2024/01/09 04:30:33;;;;;;;10.20;2.28;;;1.30;99.90;;;;;;4984259;28;20562;-91
2024/01/09 04:33:00;;;;;;;13.40;2.10;;;1.30;99.90;;;;;;5000957;28;20059;-91
2024/01/09 04:35:26;;;;;;;13.15;2.50;;;1.30;99.90;;;;;;4982860;28;20034;-91
2024/01/09 04:37:51;;;;;;;10.25;1.90;;;1.30;99.90;;;;;;5000555;28;20061;-91
2024/01/09 04:40:20;;;;;;;7.13;2.15;;;1.30;99.90;;;;;;4983495;28;20121;-91
2024/01/09 04:42:46;;;;;;;12.32;3.47;;;1.20;99.90;;;;;;4982302;28;20216;-91
2024/01/09 04:45:26;;;;;;;8.55;3.38;;;1.30;99.90;;;;;;4999772;27;1449234;-91
2024/01/09 04:47:54;;;;;;;8.23;1.98;;;1.30;99.90;;;;;;5015163;28;20287;-91
2024/01/09 04:50:19;;;;;;;8.82;1.67;;;1.30;99.90;;;;;;5014218;28;20022;-91
2024/01/09 04:52:45;;;;;;;14.35;2.85;;;1.30;99.90;;;;;;5013762;28;20031;-91
2024/01/09 04:55:11;;;;;;;8.23;1.88;;;1.30;99.90;;;;;;5014021;28;20321;-91
2024/01/09 04:57:36;;;;;;;7.85;2.28;;;1.30;99.90;;;;;;5031178;28;20061;-91
2024/01/09 05:00:02;;;;;;;13.43;2.92;;;1.30;99.90;;;;;;5013003;28;20144;-92
2024/01/09 05:02:28;;;;;;;15.77;2.25;;;1.40;99.90;;;;;;5013356;28;20033;-91
2024/01/09 05:04:54;;;;;;;8.18;2.70;;;1.40;99.90;;;;;;5031458;28;20116;-91
2024/01/09 05:07:19;;;;;;;10.68;2.28;;;1.40;99.90;;;;;;5014328;28;20498;-91
2024/01/09 05:09:45;;;;;;;5.72;2.00;;;1.40;99.90;;;;;;5017829;28;20029;-91
2024/01/09 05:12:14;;;;;;;23.55;3.17;;;1.40;99.90;;;;;;5018769;28;20026;-92
2024/01/09 05:14:41;;;;;;;7.07;2.22;;;1.40;99.90;;;;;;5002250;28;20026;-90
2024/01/09 05:17:06;;;;;;;11.80;2.75;;;1.40;99.90;;;;;;4995408;28;20031;-92
2024/01/09 05:19:32;;;;;;;10.93;2.38;;;1.40;99.90;;;;;;4993878;28;20038;-91
2024/01/09 05:21:57;;;;;;;11.68;2.00;;;1.40;99.90;;;;;;5002185;28;20090;-91
2024/01/09 05:24:23;;;;;;;8.25;1.90;;;1.40;99.90;;;;;;4994308;28;20498;-92
2024/01/09 05:26:52;;;;;;;10.20;2.08;;;1.40;99.90;;;;;;5012375;28;20034;-91
2024/01/09 05:29:18;;;;;;;9.00;2.35;;;1.40;99.90;;;;;;5011947;28;20026;-91
2024/01/09 05:31:44;;;;;;;12.85;2.13;;;1.50;99.90;;;;;;5012019;28;20081;-91
2024/01/09 05:34:10;;;;;;;10.70;2.10;;;1.50;99.90;;;;;;4993772;28;20034;-91
2024/01/09 05:36:35;;;;;;;11.15;2.30;;;1.60;99.90;;;;;;5010754;28;20037;-91
2024/01/09 05:39:01;;;;;;;13.52;2.42;;;1.60;99.90;;;;;;4993899;28;20117;-91
2024/01/09 05:41:27;;;;;;;17.10;2.78;;;1.60;99.90;;;;;;4993849;28;20056;-91
2024/01/09 05:43:53;;;;;;;14.60;2.35;;;1.60;99.90;;;;;;4977271;28;20056;-91
2024/01/09 05:46:21;;;;;;;9.75;2.25;;;1.60;99.90;;;;;;4992397;28;20044;-91
2024/01/09 05:48:47;;;;;;;19.25;4.63;;;1.60;99.90;;;;;;4992976;28;20037;-91
2024/01/09 05:51:13;;;;;;;7.82;2.00;;;1.60;99.90;;;;;;4993247;28;20420;-91
2024/01/09 05:53:40;;;;;;;14.43;2.55;;;1.50;99.90;;;;;;5010675;28;20025;-90
2024/01/09 05:56:06;;;;;;;10.88;1.70;;;1.50;99.90;;;;;;4985059;28;20018;-90
2024/01/09 05:58:33;;;;;;;13.70;2.08;;;1.50;99.90;;;;;;4980293;28;20026;-90
2024/01/09 06:00:59;;;;;;;13.98;2.40;;;1.40;99.90;;;;;;4979979;28;20118;-92
2024/01/09 06:03:26;;;;;;;14.63;2.47;;;1.40;99.90;;;;;;4980318;28;20097;-90
2024/01/09 06:05:52;;;;;;;15.13;2.33;;;1.50;99.90;;;;;;4980332;28;20030;-91
2024/01/09 06:08:18;;;;;;;9.07;2.53;;;1.40;99.90;;;;;;4997265;28;20116;-90
2024/01/09 06:10:43;;;;;;;15.50;2.60;;;1.40;99.90;;;;;;4979823;28;20022;-91
2024/01/09 06:13:09;;;;;;;18.58;3.80;;;1.40;99.90;;;;;;4979618;28;20027;-91
2024/01/09 06:15:36;;;;;;;11.27;2.42;;;1.40;99.90;;;;;;4979561;28;20084;-91
2024/01/09 06:18:02;;;;;;;6.25;2.17;;;1.40;99.90;;;;;;4996738;28;20031;-92
2024/01/09 06:20:28;;;;;;;15.63;2.38;;;1.40;99.90;;;;;;4978666;28;20032;-91
2024/01/09 06:22:54;;;;;;;16.95;2.25;;;1.40;99.90;;;;;;4979304;28;20150;-91
2024/01/09 06:25:20;;;;;;;12.93;2.10;;;1.40;99.90;;;;;;4978953;28;20059;-91
2024/01/09 06:27:46;;;;;;;10.35;2.45;;;1.40;99.90;;;;;;4996556;28;20189;-91
2024/01/09 06:30:12;;;;;;;8.95;2.55;;;1.30;99.90;;;;;;4979452;28;20515;-90
2024/01/09 06:32:38;;;;;;;10.85;2.33;;;1.30;99.90;;;;;;4996666;28;20029;-92
2024/01/09 06:35:04;;;;;;;14.40;3.15;;;1.30;99.90;;;;;;4979582;28;20370;-91
2024/01/09 06:37:30;;;;;;;15.13;1.92;;;1.30;99.90;;;;;;4979669;28;20436;-91
2024/01/09 06:39:55;;;;;;;19.60;2.95;;;1.30;99.90;;;;;;4996639;28;20022;-91
2024/01/09 06:42:21;;;;;;;21.75;2.65;;;1.30;99.90;;;;;;4996512;28;20036;-91
2024/01/09 06:44:47;;;;;;;11.20;3.13;;;1.30;99.90;;;;;;4996367;28;20050;-90
2024/01/09 06:47:12;;;;;;;8.88;2.40;;;1.30;99.90;;;;;;4979130;28;20388;-91
2024/01/09 06:49:38;;;;;;;9.65;1.88;;;1.30;99.90;;;;;;4969929;28;20381;-91
2024/01/09 06:52:05;;;;;;;9.52;2.10;;;1.20;99.90;;;;;;4976729;28;20046;-91
2024/01/09 06:54:30;;;;;;;9.35;2.40;;;1.30;99.90;;;;;;4959408;28;20085;-91
2024/01/09 06:56:56;;;;;;;12.00;2.38;;;1.20;99.90;;;;;;4959005;28;20023;-91
2024/01/09 06:59:22;;;;;;;6.30;1.88;;;1.20;99.90;;;;;;4959705;28;20030;-91
2024/01/09 07:01:47;;;;;;;9.63;2.22;;;1.20;99.90;;;;;;4976206;28;20436;-91
2024/01/09 07:04:15;;;;;;;12.30;2.17;;;1.20;99.90;;;;;;4959385;28;20121;-91
2024/01/09 07:06:47;;;;;;;15.35;2.78;;;1.20;99.90;;;;;;4962996;28;20057;-91
2024/01/09 07:09:13;;;;;;;10.45;2.20;;;1.20;99.90;;;;;;4992774;28;20050;-90
2024/01/09 07:11:38;;;;;;;10.52;2.63;;;1.20;99.90;;;;;;4975667;28;20198;-91
2024/01/09 07:14:04;;;;;;;15.00;3.42;;;1.20;99.90;;;;;;4971348;28;20015;-92
2024/01/09 07:16:30;;;;;;;12.77;2.22;;;1.20;99.90;;;;;;4964179;28;20055;-91
2024/01/09 07:19:02;;;;;;;21.60;2.58;;;1.20;99.90;;;;;;5016437;28;20026;-90
2024/01/09 07:21:27;;;;;;;15.73;3.17;;;1.20;99.90;;;;;;5019359;28;20117;-90
2024/01/09 07:23:56;;;;;;;9.25;2.15;;;1.20;99.90;;;;;;4968743;28;20093;-90
2024/01/09 07:26:22;;;;;;;11.55;2.50;;;1.20;99.90;;;;;;5017953;28;20037;-91
2024/01/09 07:28:47;;;;;;;14.75;2.58;;;1.20;99.90;;;;;;5002814;28;20039;-91
2024/01/09 07:31:13;;;;;;;13.93;2.45;;;1.20;99.90;;;;;;4955334;28;20042;-89
2024/01/09 07:33:39;;;;;;;11.57;2.42;;;1.10;99.90;;;;;;4967664;28;20500;-91
2024/01/09 07:36:06;;;;;;;11.98;2.85;;;1.10;99.90;;;;;;4967783;28;20022;-92
2024/01/09 07:38:33;;;;;;;10.02;2.05;;;1.10;99.90;;;;;;4977615;28;20094;-90
2024/01/09 07:40:59;;;;;;;10.70;2.47;;;1.10;99.90;;;;;;4980662;28;20049;-88
2024/01/09 07:43:25;;;;;;;8.98;2.03;;;1.10;99.90;;;;;;4978016;28;20050;-91
2024/01/09 07:45:50;;;;;;;31.65;2.95;;;1.10;99.90;;;;;;4978968;28;20030;-90
2024/01/09 07:48:17;;;;;;;16.55;2.10;;;1.10;99.90;;;;;;4978331;28;20022;-90
2024/01/09 07:50:43;;;;;;;15.43;3.00;;;1.10;99.90;;;;;;4978380;28;20058;-89
2024/01/09 07:53:09;;;;;;;10.95;2.30;;;1.10;99.90;;;;;;4978583;28;20487;-91
2024/01/09 07:55:35;;;;;;;17.15;2.72;;;1.20;99.90;;;;;;4978452;28;20578;-91
2024/01/09 07:58:02;;;;;;;9.60;2.38;;;1.20;99.90;;;;;;4964170;28;20026;-91
2024/01/09 08:00:28;;;;;;;11.88;3.45;;;1.20;99.90;;;;;;4970422;28;20495;-91
2024/01/09 08:02:53;;;;;;;9.48;2.35;;;1.20;99.90;;;;;;4978727;28;20038;-92
2024/01/09 08:05:19;;;;;;;12.43;2.50;;;1.20;99.90;;;;;;4978219;28;20042;-91
2024/01/09 08:07:45;;;;;;;14.52;2.55;;;1.20;99.90;;;;;;4980196;28;20094;-89
2024/01/09 08:10:11;;;;;;;16.70;2.70;;;1.30;99.90;;;;;;4978622;28;20139;-90
2024/01/09 08:12:37;;;;;;;9.48;2.53;;;1.30;99.90;;;;;;4977063;28;20046;-90
2024/01/09 08:15:03;;;;;;;9.80;2.17;;;1.30;99.90;;;;;;4977750;28;20027;-91
2024/01/09 08:17:28;;;;;;;15.43;2.50;;;1.30;99.90;;;;;;4977085;28;20034;-91
2024/01/09 08:19:54;;;;;;;14.10;2.58;;;1.30;99.90;;;;;;4969069;28;20503;-92
2024/01/09 08:22:20;;;;;;;13.50;2.88;;;1.30;99.90;;;;;;4978581;28;20091;-91
2024/01/09 08:24:46;;;;;;;14.10;2.13;;;1.30;99.90;;;;;;4977127;28;20061;-92
2024/01/09 08:27:11;;;;;;;19.65;2.38;;;1.30;99.90;;;;;;4979202;28;20025;-92
2024/01/09 08:29:37;;;;;;;16.17;2.70;;;1.30;99.90;;;;;;4976687;28;20061;-91
2024/01/09 08:32:03;;;;;;;10.45;1.92;;;1.30;99.90;;;;;;4977018;28;20053;-92
2024/01/09 08:34:29;;;;;;;14.52;2.33;;;1.30;99.90;;;;;;4976981;28;20034;-92
2024/01/09 08:36:54;;;;;;;9.82;2.40;;;1.20;99.90;;;;;;4977935;28;20088;-91
2024/01/09 08:39:22;;;;;;;7.93;1.80;;;1.30;99.90;;;;;;4977058;28;20038;-91
2024/01/09 08:41:48;;;;;;;12.63;3.33;;;1.30;99.90;;;;;;4977443;28;20050;-92
2024/01/09 08:44:13;;;;;;;10.65;2.88;;;1.30;99.90;;;;;;4977511;28;20089;-91
2024/01/09 08:46:39;;;;;;;11.27;2.78;;;1.30;99.90;;;;;;4979502;28;20018;-93
2024/01/09 08:49:06;;;;;;;9.38;2.03;;;1.30;99.90;;;;;;4980204;28;20605;-91
2024/01/09 08:51:31;;;;;;;11.90;2.35;;;1.40;99.90;;;;;;4979711;28;20030;-91
2024/01/09 08:53:59;;;;;;;10.80;2.92;;;1.40;99.90;;;;;;4981247;28;20033;-93
2024/01/09 08:56:24;;;;;;;15.27;2.92;;;1.40;99.90;;;;;;4980181;28;20026;-91
2024/01/09 08:58:50;;;;;;;11.15;3.05;;;1.40;99.90;;;;;;4982561;28;20084;-91
2024/01/09 09:01:20;;;;;;;19.52;3.40;;;1.40;99.90;;;;;;4976211;28;20081;-91
2024/01/09 09:03:46;;;;;;;12.98;2.72;;;1.40;99.90;;;;;;4957554;28;20110;-90
2024/01/09 09:06:12;;;;;;;12.95;2.20;;;1.40;99.90;;;;;;4965895;28;20034;-91
2024/01/09 09:08:39;;;;;;;10.45;2.03;;;1.40;99.90;;;;;;4976469;28;20025;-92
2024/01/09 09:11:07;;;;;;;14.35;2.40;;;1.40;99.90;;;;;;4977273;28;20026;-91
2024/01/09 09:13:32;;;;;;;10.73;2.45;;;1.50;99.90;;;;;;4976450;28;20030;-91
2024/01/09 09:15:58;;;;;;;10.07;2.47;;;1.50;99.90;;;;;;4976265;28;20072;-92
2024/01/09 09:18:24;;;;;;;14.27;2.42;;;1.50;99.90;;;;;;4976299;28;20034;-90
2024/01/09 09:20:51;;;;;;;11.55;2.00;;;1.50;99.90;;;;;;4976336;28;20022;-91
2024/01/09 09:23:17;;;;;;;8.32;2.17;;;1.50;99.90;;;;;;4976799;28;20034;-92
2024/01/09 09:25:42;;;;;;;11.95;2.60;;;1.60;99.90;;;;;;4977205;28;20037;-91
2024/01/09 09:28:08;;;;;;;11.80;2.92;;;1.60;99.90;;;;;;4976249;28;20470;-91
2024/01/09 09:30:34;;;;;;;7.65;2.55;;;1.60;99.90;;;;;;4977510;28;20026;-91
2024/01/09 09:33:00;;;;;;;15.32;2.58;;;1.70;99.90;;;;;;4980205;28;20018;-91
2024/01/09 09:35:25;;;;;;;11.18;2.05;;;1.70;99.90;;;;;;4979424;28;20092;-93
2024/01/09 09:37:51;;;;;;;9.65;1.80;;;1.70;99.90;;;;;;4988599;28;20034;-92
2024/01/09 09:40:17;;;;;;;7.72;2.00;;;1.80;99.90;;;;;;4974846;28;21221;-91
2024/01/09 09:42:46;;;;;;;18.25;3.58;;;1.80;99.90;;;;;;4971250;28;20432;-91
2024/01/09 09:45:16;;;;;;;13.82;2.42;;;1.80;99.90;;;;;;4966092;28;20042;-92
2024/01/09 09:47:42;;;;;;;11.10;2.45;;;1.90;99.90;;;;;;4962026;28;20050;-91
2024/01/09 09:50:09;;;;;;;10.30;2.47;;;2.00;99.90;;;;;;4960813;28;20484;-91
2024/01/09 09:52:41;;;;;;;8.85;1.92;;;2.00;99.90;;;;;;4979386;28;20542;-91
2024/01/09 09:55:09;;;;;;;16.58;3.08;;;2.10;99.90;;;;;;5017525;28;20039;-92
2024/01/09 09:57:35;;;;;;;7.28;1.60;;;2.10;99.90;;;;;;4981343;28;20026;-93
2024/01/09 10:00:00;;;;;;;8.02;2.13;;;2.20;99.90;;;;;;4979709;28;20030;-92
2024/01/09 10:02:30;;;;;;;12.73;2.67;;;2.20;99.90;;;;;;4976859;28;20019;-92
2024/01/09 10:05:02;;;;;;;9.10;2.17;;;2.30;99.90;;;;;;4979796;28;20483;-92
2024/01/09 10:07:31;;;;;;;11.20;2.20;;;2.40;99.90;;;;;;4996141;28;20050;-92
2024/01/09 10:10:01;;;;;;;6.72;1.80;;;2.50;99.90;;;;;;4966364;28;20053;-92
2024/01/09 10:12:28;;;;;;;11.90;1.92;;;2.60;99.90;;;;;;4960308;28;20031;-93
2024/01/09 10:15:07;;;;;;;10.00;2.47;;;2.70;99.90;;;;;;4960820;28;20461;-92
2024/01/09 10:17:33;;;;;;;10.10;2.50;;;2.70;99.90;;;;;;4976478;28;20034;-92
2024/01/09 10:19:59;;;;;;;16.20;2.00;;;2.80;99.90;;;;;;4980397;28;20030;-92
2024/01/09 10:22:29;;;;;;;10.40;1.92;;;2.80;99.90;;;;;;4979693;28;20050;-92
2024/01/09 10:24:56;;;;;;;8.80;2.33;;;2.80;99.90;;;;;;4979134;28;20041;-92
2024/01/09 10:27:22;;;;;;;11.23;1.95;;;2.90;99.90;;;;;;4977752;28;20029;-94
2024/01/09 10:29:49;;;;;;;14.00;2.35;;;2.90;99.90;;;;;;4980652;28;20026;-93
2024/01/09 10:32:17;;;;;;;6.82;2.08;;;2.90;99.90;;;;;;4980109;28;20057;-93
2024/01/09 10:34:44;;;;;;;10.02;2.42;;;2.90;99.90;;;;;;4983149;28;20031;-92
2024/01/09 10:37:12;;;;;;;8.23;2.22;;;2.90;99.90;;;;;;4979922;28;20115;-93
2024/01/09 10:39:39;;;;;;;10.73;2.38;;;3.00;99.90;;;;;;4986774;28;20126;-92
2024/01/09 10:42:12;;;;;;;13.73;3.00;;;2.90;99.90;;;;;;4992679;28;20018;-93
2024/01/09 10:44:41;;;;;;;11.77;2.10;;;2.90;99.90;;;;;;4991451;28;20078;-92
2024/01/09 10:47:13;;;;;;;7.45;1.75;;;2.90;99.90;;;;;;4989281;28;20042;-91
2024/01/09 10:49:40;;;;;;;8.45;2.00;;;2.90;99.90;;;;;;4990438;28;20022;-92
2024/01/09 10:52:17;;;;;;;7.38;2.10;;;2.90;99.90;;;;;;4988709;28;20053;-91
2024/01/09 10:54:44;;;;;;;13.60;1.80;;;3.00;99.90;;;;;;4981793;28;20027;-92
2024/01/09 10:57:14;;;;;;;12.00;2.58;;;3.00;99.90;;;;;;4984756;28;20023;-89
2024/01/09 10:59:44;;;;;;;12.35;2.78;;;2.90;99.90;;;;;;4983800;28;20101;-93
2024/01/09 11:02:21;;;;;;;8.63;2.10;;;2.90;99.90;;;;;;4986866;28;20022;-92
2024/01/09 11:04:48;;;;;;;12.40;2.10;;;3.00;99.90;;;;;;4986775;28;20054;-92
2024/01/09 11:07:15;;;;;;;9.70;2.03;;;3.00;99.90;;;;;;4990779;28;20023;-89
2024/01/09 11:09:48;;;;;;;8.23;2.63;;;3.00;99.90;;;;;;4987909;28;20101;-92
2024/01/09 11:12:15;;;;;;;7.85;2.00;;;3.00;99.90;;;;;;4985465;28;20037;-90
2024/01/09 11:14:44;;;;;;;7.13;2.08;;;3.10;99.90;;;;;;4985507;28;20037;-91
2024/01/09 11:17:12;;;;;;;9.90;1.80;;;3.10;99.90;;;;;;4983981;28;20551;-92
2024/01/09 11:19:38;;;;;;;9.82;1.85;;;3.20;99.90;;;;;;4984344;28;20082;-90
2024/01/09 11:22:17;;;;;;;9.77;2.17;;;3.20;99.90;;;;;;4984983;28;20526;-92
2024/01/09 11:24:57;;;;;;;15.93;2.45;;;3.20;99.90;;;;;;4987460;28;20092;-92
2024/01/09 11:27:22;;;;;;;11.40;2.10;;;3.20;99.90;;;;;;4978322;28;20029;-92
2024/01/09 11:29:53;;;;;;;13.57;2.10;;;3.30;99.90;;;;;;4980129;28;20031;-90
2024/01/09 11:32:27;;;;;;;13.88;1.90;;;3.30;99.90;;;;;;4978510;28;20053;-90
2024/01/09 11:35:20;;;;;;;10.30;2.58;;;3.30;99.90;;;;;;4967743;28;20023;-90
2024/01/09 11:37:51;;;;;;;7.88;1.88;;;3.30;99.90;;;;;;4983882;28;20105;-91
2024/01/09 11:40:18;;;;;;;12.10;3.50;;;3.30;99.90;;;;;;4996170;28;20104;-91
2024/01/09 11:42:50;;;;;;;11.40;2.05;;;3.30;99.90;;;;;;4965565;28;20242;-91
2024/01/09 11:45:24;;;;;;;15.40;2.33;;;3.40;99.90;;;;;;4999635;28;20050;-92
2024/01/09 11:47:50;;;;;;;11.48;1.88;;;3.40;99.90;;;;;;4967459;28;20043;-91
2024/01/09 11:50:16;;;;;;;14.80;2.70;;;3.50;99.90;;;;;;4999039;28;20118;-91
2024/01/09 11:52:43;;;;;;;5.18;1.70;;;3.50;99.90;;;;;;4969291;28;20018;-91
2024/01/09 11:55:10;;;;;;;12.88;2.35;;;3.50;99.90;;;;;;4969538;28;20029;-91
2024/01/09 11:57:39;;;;;;;8.18;2.40;;;3.50;99.90;;;;;;4968836;28;20061;-91
2024/01/09 12:00:06;;;;;;;8.52;2.17;;;3.40;99.90;;;;;;4968148;28;20026;-92
2024/01/09 12:02:36;;;;;;;11.20;1.85;;;3.40;99.90;;;;;;4967857;28;20034;-91
2024/01/09 12:05:08;;;;;;;8.60;1.83;;;3.50;99.90;;;;;;4997583;28;20046;-91
2024/01/09 12:07:39;;;;;;;11.15;1.80;;;3.50;99.90;;;;;;4967260;28;20487;-92
2024/01/09 12:10:07;;;;;;;7.57;1.98;;;3.50;99.90;;;;;;4971984;28;20033;-92
2024/01/09 12:12:32;;;;;;;6.32;1.98;;;3.50;99.90;;;;;;4970710;28;20027;-92
2024/01/09 12:14:59;;;;;;;10.25;2.00;;;3.50;99.90;;;;;;5000016;28;20032;-91
2024/01/09 12:17:33;;;;;;;13.95;3.08;;;3.50;99.90;;;;;;5000130;28;20014;-91
2024/01/09 12:19:59;;;;;;;10.57;1.83;;;3.50;99.90;;;;;;4967095;28;20130;-91
2024/01/09 12:22:25;;;;;;;8.40;1.60;;;3.50;99.90;;;;;;4970849;28;20030;-91
2024/01/09 12:24:52;;;;;;;7.40;1.67;;;3.50;99.90;;;;;;4995638;28;20042;-91
2024/01/09 12:27:20;;;;;;;7.10;1.98;;;3.50;99.90;;;;;;4998371;28;20022;-91
2024/01/09 12:29:46;;;;;;;10.45;3.00;;;3.50;99.90;;;;;;4999401;28;20026;-92
2024/01/09 12:32:13;;;;;;;9.45;1.80;;;3.50;99.90;;;;;;4968539;28;20030;-92
2024/01/09 12:34:39;;;;;;;7.55;1.70;;;3.50;99.90;;;;;;4969389;28;20026;-89
2024/01/09 12:37:08;;;;;;;11.70;2.10;;;3.40;99.90;;;;;;4966989;28;20049;-91
2024/01/09 12:39:37;;;;;;;8.45;1.58;;;3.40;99.90;;;;;;4968765;28;20545;-93
2024/01/09 12:42:12;;;;;;;6.03;1.63;;;3.40;99.90;;;;;;4998835;28;20022;-92
2024/01/09 12:44:38;;;;;;;10.18;2.33;;;3.30;99.90;;;;;;4970487;28;20100;-91
2024/01/09 12:47:12;;;;;;;5.00;1.30;;;3.40;99.90;;;;;;4997926;28;20033;-92
2024/01/09 12:49:49;;;;;;;14.25;1.75;;;3.30;99.90;;;;;;4968609;28;20025;-91